• Join FlightAware (Why Join?)
  • Login
  • US Flag 
04:21AM EDT


 

Airport Tracker/Info


-or-


 

Live Flight TrackerFlight Track Log ✈ AFL1213 ✈ 17-Jun-2014 ✈ UWWW / KUF - UUEE / SVO

Flight Track Log - Related Links

Times and Time Zones

All times are in EDT time to prevent confusion due to time zone crossing. See the AFL1213 flight status page for this flight to view local times or setup timezone preferences in your user account.

Time Position Orientation Groundspeed Altitude Reporting Facility
EDT Latitude Longitude Course Direction KTS MPH feet Rate Location/Type
10:13AM 53.8005 49.1311 293° West  Level Estimated
10:14AM 53.8425 48.9598 293° West  Level Estimated
10:15AM 53.8842 48.7881 292° West  Level Estimated
10:16AM 53.9257 48.6161 292° West  Level Estimated
10:17AM 53.9669 48.4438 292° West  Level Estimated
10:18AM 54.0079 48.2712 292° West  Level Estimated
10:19AM 54.0486 48.0981 292° West  Level Estimated
10:20AM 54.0891 47.9248 292° West  Level Estimated
10:21AM 54.1293 47.7511 292° West  Level Estimated
10:22AM 54.1693 47.5771 291° West  Level Estimated
10:23AM 54.2090 47.4027 291° West  Level Estimated
10:24AM 54.2485 47.2281 291° West  Level Estimated
10:25AM 54.2877 47.0530 291° West  Level Estimated
10:26AM 54.3267 46.8777 291° West  Level Estimated
10:27AM 54.3654 46.7020 291° West  Level Estimated
10:28AM 54.4038 46.5260 291° West  Level Estimated
10:29AM 54.4360 46.3774 290° West  Level Estimated
10:30AM 54.4681 46.2286 290° West  Level Estimated
10:31AM 54.4999 46.0795 290° West  Level Estimated
10:32AM 54.5316 45.9302 290° West  Level Estimated
10:33AM 54.5630 45.7807 290° West  Level Estimated
10:34AM 54.5943 45.6310 290° West  Level Estimated
10:35AM 54.6254 45.4810 290° West  Level Estimated
10:36AM 54.6563 45.3308 290° West  Level Estimated
10:37AM 54.6871 45.1804 290° West  Level Estimated
10:38AM 54.7176 45.0298 289° West  Level Estimated
10:39AM 54.7480 44.8789 289° West  Level Estimated
10:40AM 54.7781 44.7278 289° West  Level Estimated
10:41AM 54.8081 44.5765 289° West  Level Estimated
10:42AM 54.8379 44.4249 289° West  Level Estimated
10:43AM 54.8675 44.2731 289° West  Level Estimated
10:44AM 54.8969 44.1211 289° West  Level Estimated
10:45AM 54.9262 43.9689 289° West  Level Estimated
10:46AM 54.9552 43.8165 288° West  Level Estimated
10:47AM 54.9841 43.6638 288° West  Level Estimated
10:48AM 55.0127 43.5109 288° West  Level Estimated
10:49AM 55.0412 43.3578 288° West  Level Estimated
10:50AM 55.0694 43.2045 288° West  Level Estimated
10:51AM 55.0975 43.0510 288° West  Level Estimated
10:52AM 55.1254 42.8972 288° West  Level Estimated
10:53AM 55.1531 42.7433 288° West  Level Estimated
10:54AM 55.1806 42.5891 287° West  Level Estimated
10:55AM 55.2079 42.4347 287° West  Level Estimated
10:56AM 55.2350 42.2801 287° West  Level Estimated
10:57AM 55.2619 42.1253 287° West  Level Estimated
10:58AM 55.2886 41.9703 287° West  Level Estimated
10:59AM 55.3151 41.8151 287° West  Level Estimated
11:00AM 55.3414 41.6596 287° West  Level Estimated
11:01AM 55.3675 41.5040 287° West  Level Estimated
11:02AM 55.3935 41.3482 286° West  Level Estimated
11:03AM 55.4192 41.1921 286° West  Level Estimated
11:04AM 55.4447 41.0359 286° West  Level Estimated
11:05AM 55.4701 40.8794 286° West  Level Estimated
11:06AM 55.4952 40.7228 286° West  Level Estimated
11:07AM 55.5201 40.5659 286° West  Level Estimated
11:08AM 55.5448 40.4089 286° West  Level Estimated
11:09AM 55.5694 40.2517 285° West  Level Estimated
11:10AM 55.5937 40.0942 285° West  Level Estimated
11:11AM 55.6178 39.9366 285° West  Level Estimated
11:12AM 55.6417 39.7788 285° West  Level Estimated
11:13AM 55.6654 39.6207 285° West  Level Estimated
11:14AM 55.6889 39.4625 285° West  Level Estimated
11:15AM 55.7123 39.3041 285° West  Level Estimated
11:16AM 55.7354 39.1455 285° West  Level Estimated
11:17AM 55.7583 38.9868 284° West  Level Estimated
11:18AM 55.7837 38.8087 284° West  Level Estimated
11:19AM 55.8088 38.6304 284° West  Level Estimated
11:20AM 55.8337 38.4519 284° West  Level Estimated
11:21AM 55.8583 38.2732 284° West  Level Estimated
11:22AM 55.8827 38.0942 284° West  Level Estimated
11:23AM 55.9068 37.9151 284° West  Level Estimated
11:24AM 55.9307 37.7356 283° West  Level Estimated
11:25AM 55.9543 37.5560 283° West  Level Estimated
11:26AM 55.9726 37.4146 283° West  Level Estimated
11:27AM 55.9726 37.4146 North  Level Estimated
11:28AM 55.9726 37.4146 North  Level Estimated
11:29AM 55.9726 37.4146 North  Level Estimated
11:30AM 55.9726 37.4146 North  Level Estimated
11:31AM 55.9726 37.4146 North  Level Estimated